sensor_id;sensor_type;location;lat;lon;timestamp;P1;durP1;ratioP1;P2;durP2;ratioP2
60030;SDS011;45901;47.600;9.890;2023-05-02T00:02:07;2.60;;;2.07;;
60030;SDS011;45901;47.600;9.890;2023-05-02T00:04:35;3.33;;;2.50;;
60030;SDS011;45901;47.600;9.890;2023-05-02T00:07:02;3.47;;;2.60;;
60030;SDS011;45901;47.600;9.890;2023-05-02T00:09:31;2.33;;;1.93;;
60030;SDS011;45901;47.600;9.890;2023-05-02T00:11:58;2.47;;;1.83;;
60030;SDS011;45901;47.600;9.890;2023-05-02T00:14:26;3.00;;;2.17;;
60030;SDS011;45901;47.600;9.890;2023-05-02T00:16:54;4.63;;;2.20;;
60030;SDS011;45901;47.600;9.890;2023-05-02T00:19:21;2.20;;;1.93;;
60030;SDS011;45901;47.600;9.890;2023-05-02T00:21:49;8.93;;;2.53;;
60030;SDS011;45901;47.600;9.890;2023-05-02T00:24:17;3.27;;;1.90;;
60030;SDS011;45901;47.600;9.890;2023-05-02T00:26:46;3.70;;;1.90;;
60030;SDS011;45901;47.600;9.890;2023-05-02T00:29:13;2.77;;;1.90;;
60030;SDS011;45901;47.600;9.890;2023-05-02T00:31:41;3.33;;;2.20;;
60030;SDS011;45901;47.600;9.890;2023-05-02T00:34:08;3.00;;;2.20;;
60030;SDS011;45901;47.600;9.890;2023-05-02T00:36:36;3.80;;;2.27;;
60030;SDS011;45901;47.600;9.890;2023-05-02T00:39:03;3.30;;;1.90;;
60030;SDS011;45901;47.600;9.890;2023-05-02T00:41:31;2.80;;;2.20;;
60030;SDS011;45901;47.600;9.890;2023-05-02T00:44:00;3.10;;;2.20;;
60030;SDS011;45901;47.600;9.890;2023-05-02T00:46:27;3.83;;;2.67;;
60030;SDS011;45901;47.600;9.890;2023-05-02T00:48:55;2.43;;;2.00;;
60030;SDS011;45901;47.600;9.890;2023-05-02T00:51:23;2.73;;;2.00;;
60030;SDS011;45901;47.600;9.890;2023-05-02T00:53:50;3.10;;;2.40;;
60030;SDS011;45901;47.600;9.890;2023-05-02T00:56:19;4.33;;;2.07;;
60030;SDS011;45901;47.600;9.890;2023-05-02T00:58:47;3.20;;;1.97;;
60030;SDS011;45901;47.600;9.890;2023-05-02T01:01:19;3.80;;;2.50;;
60030;SDS011;45901;47.600;9.890;2023-05-02T01:06:58;2.83;;;2.10;;
60030;SDS011;45901;47.600;9.890;2023-05-02T01:09:38;4.93;;;2.30;;
60030;SDS011;45901;47.600;9.890;2023-05-02T01:12:26;3.90;;;2.53;;
60030;SDS011;45901;47.600;9.890;2023-05-02T01:14:58;3.23;;;2.33;;
60030;SDS011;45901;47.600;9.890;2023-05-02T01:17:32;5.83;;;2.13;;
60030;SDS011;45901;47.600;9.890;2023-05-02T01:20:02;3.33;;;2.40;;
60030;SDS011;45901;47.600;9.890;2023-05-02T01:22:34;2.77;;;1.90;;
60030;SDS011;45901;47.600;9.890;2023-05-02T01:25:07;2.83;;;2.30;;
60030;SDS011;45901;47.600;9.890;2023-05-02T01:27:50;3.17;;;2.30;;
60030;SDS011;45901;47.600;9.890;2023-05-02T01:30:30;3.00;;;2.30;;
60030;SDS011;45901;47.600;9.890;2023-05-02T01:33:00;3.07;;;2.40;;
60030;SDS011;45901;47.600;9.890;2023-05-02T01:35:30;3.33;;;2.47;;
60030;SDS011;45901;47.600;9.890;2023-05-02T01:37:59;3.03;;;2.30;;
60030;SDS011;45901;47.600;9.890;2023-05-02T01:40:27;3.07;;;2.50;;
60030;SDS011;45901;47.600;9.890;2023-05-02T01:42:56;2.90;;;2.30;;
60030;SDS011;45901;47.600;9.890;2023-05-02T01:45:24;2.67;;;2.10;;
60030;SDS011;45901;47.600;9.890;2023-05-02T01:47:55;3.33;;;2.33;;
60030;SDS011;45901;47.600;9.890;2023-05-02T01:50:23;5.30;;;2.60;;
60030;SDS011;45901;47.600;9.890;2023-05-02T01:52:52;4.93;;;2.50;;
60030;SDS011;45901;47.600;9.890;2023-05-02T01:55:20;3.50;;;2.40;;
60030;SDS011;45901;47.600;9.890;2023-05-02T01:57:49;4.17;;;2.47;;
60030;SDS011;45901;47.600;9.890;2023-05-02T02:00:20;3.87;;;2.00;;
60030;SDS011;45901;47.600;9.890;2023-05-02T02:02:49;3.17;;;2.10;;
60030;SDS011;45901;47.600;9.890;2023-05-02T02:05:20;2.57;;;2.03;;
60030;SDS011;45901;47.600;9.890;2023-05-02T02:07:49;3.13;;;2.17;;
60030;SDS011;45901;47.600;9.890;2023-05-02T02:10:17;3.97;;;2.37;;
60030;SDS011;45901;47.600;9.890;2023-05-02T02:12:48;3.03;;;2.30;;
60030;SDS011;45901;47.600;9.890;2023-05-02T02:15:20;3.30;;;2.20;;
60030;SDS011;45901;47.600;9.890;2023-05-02T02:17:56;2.33;;;1.70;;
60030;SDS011;45901;47.600;9.890;2023-05-02T02:20:28;6.00;;;2.30;;
60030;SDS011;45901;47.600;9.890;2023-05-02T02:22:57;3.03;;;1.97;;
60030;SDS011;45901;47.600;9.890;2023-05-02T02:25:28;2.80;;;2.07;;
60030;SDS011;45901;47.600;9.890;2023-05-02T02:27:57;3.10;;;2.30;;
60030;SDS011;45901;47.600;9.890;2023-05-02T02:30:24;2.23;;;1.80;;
60030;SDS011;45901;47.600;9.890;2023-05-02T02:32:52;3.43;;;1.87;;
60030;SDS011;45901;47.600;9.890;2023-05-02T02:35:19;2.20;;;1.60;;
60030;SDS011;45901;47.600;9.890;2023-05-02T02:37:51;2.93;;;1.87;;
60030;SDS011;45901;47.600;9.890;2023-05-02T02:40:28;2.43;;;1.87;;
60030;SDS011;45901;47.600;9.890;2023-05-02T02:43:07;2.23;;;1.80;;
60030;SDS011;45901;47.600;9.890;2023-05-02T02:45:45;3.93;;;1.77;;
60030;SDS011;45901;47.600;9.890;2023-05-02T02:48:24;2.47;;;1.80;;
60030;SDS011;45901;47.600;9.890;2023-05-02T02:51:02;2.80;;;1.83;;
60030;SDS011;45901;47.600;9.890;2023-05-02T02:53:42;6.53;;;1.97;;
60030;SDS011;45901;47.600;9.890;2023-05-02T02:56:21;2.40;;;2.00;;
60030;SDS011;45901;47.600;9.890;2023-05-02T02:58:56;3.00;;;1.83;;
60030;SDS011;45901;47.600;9.890;2023-05-02T03:01:30;2.97;;;2.10;;
60030;SDS011;45901;47.600;9.890;2023-05-02T03:04:03;2.60;;;2.03;;
60030;SDS011;45901;47.600;9.890;2023-05-02T03:06:33;2.37;;;1.90;;
60030;SDS011;45901;47.600;9.890;2023-05-02T03:09:02;2.37;;;1.73;;
60030;SDS011;45901;47.600;9.890;2023-05-02T03:11:29;2.67;;;2.10;;
60030;SDS011;45901;47.600;9.890;2023-05-02T03:13:57;2.00;;;1.67;;
60030;SDS011;45901;47.600;9.890;2023-05-02T03:16:31;2.70;;;1.70;;
60030;SDS011;45901;47.600;9.890;2023-05-02T03:19:01;2.33;;;1.90;;
60030;SDS011;45901;47.600;9.890;2023-05-02T03:21:30;2.67;;;1.90;;
60030;SDS011;45901;47.600;9.890;2023-05-02T03:23:58;1.53;;;1.43;;
60030;SDS011;45901;47.600;9.890;2023-05-02T03:26:27;3.73;;;1.70;;
60030;SDS011;45901;47.600;9.890;2023-05-02T03:28:55;2.30;;;1.87;;
60030;SDS011;45901;47.600;9.890;2023-05-02T03:31:23;2.47;;;1.83;;
60030;SDS011;45901;47.600;9.890;2023-05-02T03:33:50;2.20;;;1.73;;
60030;SDS011;45901;47.600;9.890;2023-05-02T03:36:18;3.17;;;2.20;;
60030;SDS011;45901;47.600;9.890;2023-05-02T03:38:46;2.30;;;2.00;;
60030;SDS011;45901;47.600;9.890;2023-05-02T03:41:13;2.00;;;1.73;;
60030;SDS011;45901;47.600;9.890;2023-05-02T03:43:42;3.13;;;2.20;;
60030;SDS011;45901;47.600;9.890;2023-05-02T03:46:09;3.40;;;2.17;;
60030;SDS011;45901;47.600;9.890;2023-05-02T03:48:40;4.40;;;2.70;;
60030;SDS011;45901;47.600;9.890;2023-05-02T03:51:09;2.77;;;2.10;;
60030;SDS011;45901;47.600;9.890;2023-05-02T03:53:37;4.17;;;2.23;;
60030;SDS011;45901;47.600;9.890;2023-05-02T03:56:05;5.27;;;2.20;;
60030;SDS011;45901;47.600;9.890;2023-05-02T03:58:33;3.73;;;1.80;;
60030;SDS011;45901;47.600;9.890;2023-05-02T04:01:02;2.53;;;1.77;;
60030;SDS011;45901;47.600;9.890;2023-05-02T04:03:30;3.60;;;2.20;;
60030;SDS011;45901;47.600;9.890;2023-05-02T04:05:57;2.90;;;2.33;;
60030;SDS011;45901;47.600;9.890;2023-05-02T04:08:24;2.77;;;1.83;;
60030;SDS011;45901;47.600;9.890;2023-05-02T04:10:52;2.70;;;2.00;;
60030;SDS011;45901;47.600;9.890;2023-05-02T04:13:19;2.97;;;2.20;;
60030;SDS011;45901;47.600;9.890;2023-05-02T04:15:47;3.37;;;2.50;;
60030;SDS011;45901;47.600;9.890;2023-05-02T04:18:15;17.93;;;8.13;;
60030;SDS011;45901;47.600;9.890;2023-05-02T04:20:43;13.73;;;6.83;;
60030;SDS011;45901;47.600;9.890;2023-05-02T04:23:10;9.90;;;3.57;;
60030;SDS011;45901;47.600;9.890;2023-05-02T04:25:38;7.07;;;5.50;;
60030;SDS011;45901;47.600;9.890;2023-05-02T04:28:05;9.57;;;5.87;;
60030;SDS011;45901;47.600;9.890;2023-05-02T04:30:33;5.40;;;4.13;;
60030;SDS011;45901;47.600;9.890;2023-05-02T04:33:01;6.50;;;4.53;;
60030;SDS011;45901;47.600;9.890;2023-05-02T04:35:30;10.43;;;6.70;;
60030;SDS011;45901;47.600;9.890;2023-05-02T04:37:57;13.47;;;8.33;;
60030;SDS011;45901;47.600;9.890;2023-05-02T04:40:25;14.33;;;7.63;;
60030;SDS011;45901;47.600;9.890;2023-05-02T04:42:52;10.43;;;6.00;;
60030;SDS011;45901;47.600;9.890;2023-05-02T04:45:19;6.87;;;4.00;;
60030;SDS011;45901;47.600;9.890;2023-05-02T04:47:47;5.10;;;3.50;;
60030;SDS011;45901;47.600;9.890;2023-05-02T04:50:14;3.50;;;2.30;;
60030;SDS011;45901;47.600;9.890;2023-05-02T04:52:43;3.37;;;2.40;;
60030;SDS011;45901;47.600;9.890;2023-05-02T04:55:11;3.30;;;2.13;;
60030;SDS011;45901;47.600;9.890;2023-05-02T04:57:38;4.10;;;2.47;;
60030;SDS011;45901;47.600;9.890;2023-05-02T05:00:06;3.77;;;2.67;;
60030;SDS011;45901;47.600;9.890;2023-05-02T05:02:35;3.50;;;2.27;;
60030;SDS011;45901;47.600;9.890;2023-05-02T05:05:03;3.83;;;2.23;;
60030;SDS011;45901;47.600;9.890;2023-05-02T05:07:31;2.70;;;2.17;;
60030;SDS011;45901;47.600;9.890;2023-05-02T05:10:00;3.40;;;2.20;;
60030;SDS011;45901;47.600;9.890;2023-05-02T05:12:27;2.90;;;2.30;;
60030;SDS011;45901;47.600;9.890;2023-05-02T05:14:55;7.03;;;2.10;;
60030;SDS011;45901;47.600;9.890;2023-05-02T05:17:22;3.80;;;1.73;;
60030;SDS011;45901;47.600;9.890;2023-05-02T05:19:50;2.30;;;1.80;;
60030;SDS011;45901;47.600;9.890;2023-05-02T05:22:17;2.67;;;1.80;;
60030;SDS011;45901;47.600;9.890;2023-05-02T05:24:49;2.70;;;1.93;;
60030;SDS011;45901;47.600;9.890;2023-05-02T05:27:19;3.90;;;1.90;;
60030;SDS011;45901;47.600;9.890;2023-05-02T05:29:47;2.70;;;2.20;;
60030;SDS011;45901;47.600;9.890;2023-05-02T05:32:14;3.63;;;2.23;;
60030;SDS011;45901;47.600;9.890;2023-05-02T05:34:41;2.80;;;2.50;;
60030;SDS011;45901;47.600;9.890;2023-05-02T05:37:09;3.33;;;2.40;;
60030;SDS011;45901;47.600;9.890;2023-05-02T05:39:36;3.20;;;2.50;;
60030;SDS011;45901;47.600;9.890;2023-05-02T05:42:03;2.80;;;2.50;;
60030;SDS011;45901;47.600;9.890;2023-05-02T05:44:35;2.70;;;2.00;;
60030;SDS011;45901;47.600;9.890;2023-05-02T05:47:02;2.50;;;2.20;;
60030;SDS011;45901;47.600;9.890;2023-05-02T05:49:30;4.10;;;2.80;;
60030;SDS011;45901;47.600;9.890;2023-05-02T05:52:00;2.60;;;2.33;;
60030;SDS011;45901;47.600;9.890;2023-05-02T05:54:28;3.53;;;2.43;;
60030;SDS011;45901;47.600;9.890;2023-05-02T05:56:55;3.93;;;2.90;;
60030;SDS011;45901;47.600;9.890;2023-05-02T05:59:23;4.97;;;2.70;;
60030;SDS011;45901;47.600;9.890;2023-05-02T06:01:53;4.63;;;3.03;;
60030;SDS011;45901;47.600;9.890;2023-05-02T06:04:20;3.63;;;3.03;;
60030;SDS011;45901;47.600;9.890;2023-05-02T06:06:48;3.73;;;2.50;;
60030;SDS011;45901;47.600;9.890;2023-05-02T06:09:17;2.83;;;2.23;;
60030;SDS011;45901;47.600;9.890;2023-05-02T06:11:45;4.23;;;2.43;;
60030;SDS011;45901;47.600;9.890;2023-05-02T06:14:12;3.00;;;2.70;;
60030;SDS011;45901;47.600;9.890;2023-05-02T06:16:40;3.40;;;2.53;;
60030;SDS011;45901;47.600;9.890;2023-05-02T06:19:09;2.83;;;2.30;;
60030;SDS011;45901;47.600;9.890;2023-05-02T06:21:36;2.20;;;1.97;;
60030;SDS011;45901;47.600;9.890;2023-05-02T06:24:04;2.27;;;2.07;;
60030;SDS011;45901;47.600;9.890;2023-05-02T06:26:32;3.03;;;2.30;;
60030;SDS011;45901;47.600;9.890;2023-05-02T06:28:59;2.97;;;2.33;;
60030;SDS011;45901;47.600;9.890;2023-05-02T06:31:27;2.20;;;1.90;;
60030;SDS011;45901;47.600;9.890;2023-05-02T06:33:55;3.60;;;2.20;;
60030;SDS011;45901;47.600;9.890;2023-05-02T06:36:24;4.63;;;2.10;;
60030;SDS011;45901;47.600;9.890;2023-05-02T06:38:51;2.17;;;1.73;;
60030;SDS011;45901;47.600;9.890;2023-05-02T06:41:19;3.17;;;1.93;;
60030;SDS011;45901;47.600;9.890;2023-05-02T06:43:46;2.10;;;1.67;;
60030;SDS011;45901;47.600;9.890;2023-05-02T06:46:13;3.53;;;1.70;;
60030;SDS011;45901;47.600;9.890;2023-05-02T06:48:41;1.93;;;1.53;;
60030;SDS011;45901;47.600;9.890;2023-05-02T06:51:09;1.80;;;1.53;;
60030;SDS011;45901;47.600;9.890;2023-05-02T06:53:37;2.87;;;1.60;;
60030;SDS011;45901;47.600;9.890;2023-05-02T06:56:05;2.03;;;1.47;;
60030;SDS011;45901;47.600;9.890;2023-05-02T06:58:33;1.77;;;1.60;;
60030;SDS011;45901;47.600;9.890;2023-05-02T07:01:00;3.33;;;1.43;;
60030;SDS011;45901;47.600;9.890;2023-05-02T07:03:28;4.13;;;1.60;;
60030;SDS011;45901;47.600;9.890;2023-05-02T07:05:55;2.27;;;2.07;;
60030;SDS011;45901;47.600;9.890;2023-05-02T07:08:23;3.60;;;2.00;;
60030;SDS011;45901;47.600;9.890;2023-05-02T07:10:52;2.27;;;1.83;;
60030;SDS011;45901;47.600;9.890;2023-05-02T07:13:19;2.13;;;1.87;;
60030;SDS011;45901;47.600;9.890;2023-05-02T07:15:46;2.13;;;1.83;;
60030;SDS011;45901;47.600;9.890;2023-05-02T07:18:14;2.03;;;1.80;;
60030;SDS011;45901;47.600;9.890;2023-05-02T07:20:41;3.10;;;2.30;;
60030;SDS011;45901;47.600;9.890;2023-05-02T07:23:08;2.47;;;1.93;;
60030;SDS011;45901;47.600;9.890;2023-05-02T07:25:36;2.70;;;2.00;;
60030;SDS011;45901;47.600;9.890;2023-05-02T07:28:05;3.07;;;2.20;;
60030;SDS011;45901;47.600;9.890;2023-05-02T07:30:34;2.83;;;1.97;;
60030;SDS011;45901;47.600;9.890;2023-05-02T07:33:01;2.87;;;2.50;;
60030;SDS011;45901;47.600;9.890;2023-05-02T07:35:29;5.17;;;2.80;;
60030;SDS011;45901;47.600;9.890;2023-05-02T07:37:57;5.00;;;3.47;;
60030;SDS011;45901;47.600;9.890;2023-05-02T07:40:24;4.50;;;3.40;;
60030;SDS011;45901;47.600;9.890;2023-05-02T07:42:52;3.47;;;2.77;;
60030;SDS011;45901;47.600;9.890;2023-05-02T07:45:21;3.57;;;2.80;;
60030;SDS011;45901;47.600;9.890;2023-05-02T07:47:48;3.80;;;2.90;;
60030;SDS011;45901;47.600;9.890;2023-05-02T07:50:16;6.50;;;3.27;;
60030;SDS011;45901;47.600;9.890;2023-05-02T07:52:43;5.40;;;3.60;;
60030;SDS011;45901;47.600;9.890;2023-05-02T07:55:10;4.30;;;3.10;;
60030;SDS011;45901;47.600;9.890;2023-05-02T07:57:39;5.90;;;2.60;;
60030;SDS011;45901;47.600;9.890;2023-05-02T08:00:07;6.73;;;2.70;;
60030;SDS011;45901;47.600;9.890;2023-05-02T08:02:37;8.50;;;3.07;;
60030;SDS011;45901;47.600;9.890;2023-05-02T08:05:05;3.80;;;2.90;;
60030;SDS011;45901;47.600;9.890;2023-05-02T08:07:33;6.43;;;2.90;;
60030;SDS011;45901;47.600;9.890;2023-05-02T08:10:00;3.33;;;2.63;;
60030;SDS011;45901;47.600;9.890;2023-05-02T08:12:28;3.93;;;2.80;;
60030;SDS011;45901;47.600;9.890;2023-05-02T08:14:55;6.13;;;2.93;;
60030;SDS011;45901;47.600;9.890;2023-05-02T08:17:23;4.80;;;3.63;;
60030;SDS011;45901;47.600;9.890;2023-05-02T08:19:54;7.93;;;6.00;;
60030;SDS011;45901;47.600;9.890;2023-05-02T08:22:21;7.57;;;3.37;;
60030;SDS011;45901;47.600;9.890;2023-05-02T08:24:49;5.83;;;3.67;;
60030;SDS011;45901;47.600;9.890;2023-05-02T08:27:17;6.33;;;3.87;;
60030;SDS011;45901;47.600;9.890;2023-05-02T08:29:44;4.40;;;3.63;;
60030;SDS011;45901;47.600;9.890;2023-05-02T08:32:12;7.23;;;4.40;;
60030;SDS011;45901;47.600;9.890;2023-05-02T08:34:39;7.03;;;4.37;;
60030;SDS011;45901;47.600;9.890;2023-05-02T08:37:08;5.83;;;5.00;;
60030;SDS011;45901;47.600;9.890;2023-05-02T08:39:37;7.40;;;4.83;;
60030;SDS011;45901;47.600;9.890;2023-05-02T08:42:05;10.20;;;5.70;;
60030;SDS011;45901;47.600;9.890;2023-05-02T08:44:33;11.33;;;6.77;;
60030;SDS011;45901;47.600;9.890;2023-05-02T08:47:00;7.73;;;6.10;;
60030;SDS011;45901;47.600;9.890;2023-05-02T08:49:30;7.03;;;5.70;;
60030;SDS011;45901;47.600;9.890;2023-05-02T08:52:00;9.60;;;7.13;;
60030;SDS011;45901;47.600;9.890;2023-05-02T08:54:29;10.20;;;7.40;;
60030;SDS011;45901;47.600;9.890;2023-05-02T08:56:57;8.87;;;7.33;;
60030;SDS011;45901;47.600;9.890;2023-05-02T08:59:26;9.27;;;7.27;;
60030;SDS011;45901;47.600;9.890;2023-05-02T09:01:54;11.47;;;7.30;;
60030;SDS011;45901;47.600;9.890;2023-05-02T09:04:30;11.23;;;8.23;;
60030;SDS011;45901;47.600;9.890;2023-05-02T09:07:00;12.30;;;7.73;;
60030;SDS011;45901;47.600;9.890;2023-05-02T09:09:29;12.20;;;8.47;;
60030;SDS011;45901;47.600;9.890;2023-05-02T09:11:59;14.03;;;9.70;;
60030;SDS011;45901;47.600;9.890;2023-05-02T09:14:26;16.83;;;11.13;;
60030;SDS011;45901;47.600;9.890;2023-05-02T09:16:57;11.90;;;8.13;;
60030;SDS011;45901;47.600;9.890;2023-05-02T09:19:25;14.10;;;8.90;;
60030;SDS011;45901;47.600;9.890;2023-05-02T09:21:58;17.43;;;9.47;;
60030;SDS011;45901;47.600;9.890;2023-05-02T09:24:27;12.93;;;8.97;;
60030;SDS011;45901;47.600;9.890;2023-05-02T09:26:57;13.20;;;9.50;;
60030;SDS011;45901;47.600;9.890;2023-05-02T09:29:27;13.37;;;9.63;;
60030;SDS011;45901;47.600;9.890;2023-05-02T09:31:59;12.67;;;9.60;;
60030;SDS011;45901;47.600;9.890;2023-05-02T09:34:28;11.70;;;7.93;;
60030;SDS011;45901;47.600;9.890;2023-05-02T09:36:56;10.93;;;7.17;;
60030;SDS011;45901;47.600;9.890;2023-05-02T09:39:23;8.73;;;5.60;;
60030;SDS011;45901;47.600;9.890;2023-05-02T09:41:55;5.20;;;4.20;;
60030;SDS011;45901;47.600;9.890;2023-05-02T09:44:24;9.10;;;5.13;;
60030;SDS011;45901;47.600;9.890;2023-05-02T09:47:01;6.30;;;5.10;;
60030;SDS011;45901;47.600;9.890;2023-05-02T09:49:40;6.23;;;4.60;;
60030;SDS011;45901;47.600;9.890;2023-05-02T09:52:10;7.40;;;4.13;;
60030;SDS011;45901;47.600;9.890;2023-05-02T09:54:39;7.87;;;4.23;;
60030;SDS011;45901;47.600;9.890;2023-05-02T09:57:08;7.33;;;5.43;;
60030;SDS011;45901;47.600;9.890;2023-05-02T09:59:36;6.53;;;5.33;;
60030;SDS011;45901;47.600;9.890;2023-05-02T10:02:05;9.73;;;5.67;;
60030;SDS011;45901;47.600;9.890;2023-05-02T10:04:35;8.70;;;6.37;;
60030;SDS011;45901;47.600;9.890;2023-05-02T10:07:03;11.40;;;7.77;;
60030;SDS011;45901;47.600;9.890;2023-05-02T10:09:34;10.30;;;7.63;;
60030;SDS011;45901;47.600;9.890;2023-05-02T10:12:04;12.13;;;8.60;;
60030;SDS011;45901;47.600;9.890;2023-05-02T10:14:36;13.40;;;8.87;;
60030;SDS011;45901;47.600;9.890;2023-05-02T10:17:08;12.23;;;8.60;;
60030;SDS011;45901;47.600;9.890;2023-05-02T10:19:43;12.20;;;8.80;;
60030;SDS011;45901;47.600;9.890;2023-05-02T10:22:19;14.27;;;8.87;;
60030;SDS011;45901;47.600;9.890;2023-05-02T10:24:48;10.47;;;8.10;;
60030;SDS011;45901;47.600;9.890;2023-05-02T10:27:15;12.13;;;8.30;;
60030;SDS011;45901;47.600;9.890;2023-05-02T10:29:45;12.70;;;8.03;;
60030;SDS011;45901;47.600;9.890;2023-05-02T10:32:12;11.07;;;7.63;;
60030;SDS011;45901;47.600;9.890;2023-05-02T10:34:43;13.50;;;9.43;;
60030;SDS011;45901;47.600;9.890;2023-05-02T10:37:12;11.30;;;8.73;;
60030;SDS011;45901;47.600;9.890;2023-05-02T10:39:42;13.87;;;9.27;;
60030;SDS011;45901;47.600;9.890;2023-05-02T10:42:10;13.00;;;8.90;;
60030;SDS011;45901;47.600;9.890;2023-05-02T10:44:39;10.90;;;8.37;;
60030;SDS011;45901;47.600;9.890;2023-05-02T10:47:18;12.17;;;9.50;;
60030;SDS011;45901;47.600;9.890;2023-05-02T10:49:49;12.60;;;9.00;;
60030;SDS011;45901;47.600;9.890;2023-05-02T10:52:24;13.77;;;8.37;;
60030;SDS011;45901;47.600;9.890;2023-05-02T11:00:48;11.87;;;8.17;;
60030;SDS011;45901;47.600;9.890;2023-05-02T11:06:22;11.83;;;8.00;;
60030;SDS011;45901;47.600;9.890;2023-05-02T11:08:50;9.67;;;7.77;;
60030;SDS011;45901;47.600;9.890;2023-05-02T11:11:37;9.90;;;7.87;;
60030;SDS011;45901;47.600;9.890;2023-05-02T11:14:06;10.07;;;7.70;;
60030;SDS011;45901;47.600;9.890;2023-05-02T11:22:52;8.23;;;6.60;;
60030;SDS011;45901;47.600;9.890;2023-05-02T11:25:34;9.70;;;7.23;;
60030;SDS011;45901;47.600;9.890;2023-05-02T11:28:05;7.53;;;6.17;;
60030;SDS011;45901;47.600;9.890;2023-05-02T11:44:08;7.53;;;5.37;;
60030;SDS011;45901;47.600;9.890;2023-05-02T11:49:17;6.47;;;5.10;;
60030;SDS011;45901;47.600;9.890;2023-05-02T11:51:44;9.87;;;6.77;;
60030;SDS011;45901;47.600;9.890;2023-05-02T11:54:16;9.10;;;7.20;;
60030;SDS011;45901;47.600;9.890;2023-05-02T11:56:45;8.37;;;6.60;;
60030;SDS011;45901;47.600;9.890;2023-05-02T11:59:15;7.17;;;6.30;;
60030;SDS011;45901;47.600;9.890;2023-05-02T12:01:46;10.50;;;7.27;;
60030;SDS011;45901;47.600;9.890;2023-05-02T12:04:14;8.17;;;6.50;;
60030;SDS011;45901;47.600;9.890;2023-05-02T12:06:55;8.03;;;7.20;;
60030;SDS011;45901;47.600;9.890;2023-05-02T12:09:23;6.73;;;5.33;;
60030;SDS011;45901;47.600;9.890;2023-05-02T12:11:51;9.23;;;6.50;;
60030;SDS011;45901;47.600;9.890;2023-05-02T12:14:26;8.87;;;6.30;;
60030;SDS011;45901;47.600;9.890;2023-05-02T12:16:54;7.40;;;6.20;;
60030;SDS011;45901;47.600;9.890;2023-05-02T12:19:23;7.10;;;6.40;;
60030;SDS011;45901;47.600;9.890;2023-05-02T12:21:52;10.03;;;7.10;;
60030;SDS011;45901;47.600;9.890;2023-05-02T12:24:19;6.97;;;6.17;;
60030;SDS011;45901;47.600;9.890;2023-05-02T12:26:47;6.87;;;5.87;;
60030;SDS011;45901;47.600;9.890;2023-05-02T12:29:16;6.90;;;6.20;;
60030;SDS011;45901;47.600;9.890;2023-05-02T12:31:50;6.37;;;5.60;;
60030;SDS011;45901;47.600;9.890;2023-05-02T12:34:30;6.33;;;5.37;;
60030;SDS011;45901;47.600;9.890;2023-05-02T12:36:58;6.70;;;5.30;;
60030;SDS011;45901;47.600;9.890;2023-05-02T12:39:34;6.83;;;6.00;;
60030;SDS011;45901;47.600;9.890;2023-05-02T12:42:09;7.27;;;5.33;;
60030;SDS011;45901;47.600;9.890;2023-05-02T12:44:38;6.13;;;5.30;;
60030;SDS011;45901;47.600;9.890;2023-05-02T12:47:08;7.17;;;4.60;;
60030;SDS011;45901;47.600;9.890;2023-05-02T12:49:49;5.03;;;4.37;;
60030;SDS011;45901;47.600;9.890;2023-05-02T12:52:18;7.30;;;5.13;;
60030;SDS011;45901;47.600;9.890;2023-05-02T12:54:46;5.50;;;4.47;;
60030;SDS011;45901;47.600;9.890;2023-05-02T12:57:23;4.53;;;4.10;;
60030;SDS011;45901;47.600;9.890;2023-05-02T12:59:51;4.93;;;4.00;;
60030;SDS011;45901;47.600;9.890;2023-05-02T13:02:21;6.37;;;3.77;;
60030;SDS011;45901;47.600;9.890;2023-05-02T13:04:48;3.93;;;3.53;;
60030;SDS011;45901;47.600;9.890;2023-05-02T13:07:16;5.00;;;4.30;;
60030;SDS011;45901;47.600;9.890;2023-05-02T13:09:43;5.77;;;3.97;;
60030;SDS011;45901;47.600;9.890;2023-05-02T13:12:11;6.17;;;4.20;;
60030;SDS011;45901;47.600;9.890;2023-05-02T13:14:38;5.27;;;4.30;;
60030;SDS011;45901;47.600;9.890;2023-05-02T13:17:05;5.37;;;4.40;;
60030;SDS011;45901;47.600;9.890;2023-05-02T13:19:35;6.03;;;4.20;;
60030;SDS011;45901;47.600;9.890;2023-05-02T13:22:02;5.63;;;4.30;;
60030;SDS011;45901;47.600;9.890;2023-05-02T13:24:30;7.93;;;3.90;;
60030;SDS011;45901;47.600;9.890;2023-05-02T13:26:57;5.33;;;3.90;;
60030;SDS011;45901;47.600;9.890;2023-05-02T13:29:24;5.10;;;4.20;;
60030;SDS011;45901;47.600;9.890;2023-05-02T13:31:52;4.40;;;3.17;;
60030;SDS011;45901;47.600;9.890;2023-05-02T13:34:20;4.03;;;3.20;;
60030;SDS011;45901;47.600;9.890;2023-05-02T13:36:48;5.20;;;4.20;;
60030;SDS011;45901;47.600;9.890;2023-05-02T13:39:16;4.13;;;3.47;;
60030;SDS011;45901;47.600;9.890;2023-05-02T13:41:43;3.30;;;3.00;;
60030;SDS011;45901;47.600;9.890;2023-05-02T13:44:11;2.97;;;2.60;;
60030;SDS011;45901;47.600;9.890;2023-05-02T13:46:38;2.73;;;2.03;;
60030;SDS011;45901;47.600;9.890;2023-05-02T13:49:05;3.77;;;2.20;;
60030;SDS011;45901;47.600;9.890;2023-05-02T13:51:33;2.43;;;1.90;;
60030;SDS011;45901;47.600;9.890;2023-05-02T13:54:02;2.97;;;2.20;;
60030;SDS011;45901;47.600;9.890;2023-05-02T13:56:29;3.63;;;2.17;;
60030;SDS011;45901;47.600;9.890;2023-05-02T13:58:56;3.00;;;2.17;;
60030;SDS011;45901;47.600;9.890;2023-05-02T14:01:24;2.93;;;2.00;;
60030;SDS011;45901;47.600;9.890;2023-05-02T14:03:52;2.83;;;2.00;;
60030;SDS011;45901;47.600;9.890;2023-05-02T14:06:19;3.53;;;2.50;;
60030;SDS011;45901;47.600;9.890;2023-05-02T14:08:47;3.73;;;2.50;;
60030;SDS011;45901;47.600;9.890;2023-05-02T14:11:16;4.50;;;2.50;;
60030;SDS011;45901;47.600;9.890;2023-05-02T14:13:44;2.87;;;2.57;;
60030;SDS011;45901;47.600;9.890;2023-05-02T14:16:11;2.90;;;2.40;;
60030;SDS011;45901;47.600;9.890;2023-05-02T14:18:38;6.53;;;2.90;;
60030;SDS011;45901;47.600;9.890;2023-05-02T14:21:06;6.33;;;3.47;;
60030;SDS011;45901;47.600;9.890;2023-05-02T14:23:34;4.90;;;2.87;;
60030;SDS011;45901;47.600;9.890;2023-05-02T14:26:01;4.43;;;2.67;;
60030;SDS011;45901;47.600;9.890;2023-05-02T14:28:30;2.27;;;1.70;;
60030;SDS011;45901;47.600;9.890;2023-05-02T14:30:57;3.20;;;1.70;;
60030;SDS011;45901;47.600;9.890;2023-05-02T14:33:25;2.10;;;1.80;;
60030;SDS011;45901;47.600;9.890;2023-05-02T14:35:53;2.57;;;1.77;;
60030;SDS011;45901;47.600;9.890;2023-05-02T14:38:20;1.70;;;1.50;;
60030;SDS011;45901;47.600;9.890;2023-05-02T14:40:47;3.07;;;2.17;;
60030;SDS011;45901;47.600;9.890;2023-05-02T14:43:15;3.87;;;1.90;;
60030;SDS011;45901;47.600;9.890;2023-05-02T14:45:44;4.27;;;1.90;;
60030;SDS011;45901;47.600;9.890;2023-05-02T14:48:11;3.23;;;2.10;;
60030;SDS011;45901;47.600;9.890;2023-05-02T14:50:40;2.10;;;1.90;;
60030;SDS011;45901;47.600;9.890;2023-05-02T14:53:08;2.73;;;2.10;;
60030;SDS011;45901;47.600;9.890;2023-05-02T14:55:36;2.27;;;1.70;;
60030;SDS011;45901;47.600;9.890;2023-05-02T14:58:04;3.83;;;2.10;;
60030;SDS011;45901;47.600;9.890;2023-05-02T15:00:32;6.13;;;2.70;;
60030;SDS011;45901;47.600;9.890;2023-05-02T15:03:03;3.13;;;2.30;;
60030;SDS011;45901;47.600;9.890;2023-05-02T15:05:30;2.93;;;2.63;;
60030;SDS011;45901;47.600;9.890;2023-05-02T15:07:58;3.63;;;2.50;;
60030;SDS011;45901;47.600;9.890;2023-05-02T15:10:26;3.60;;;2.57;;
60030;SDS011;45901;47.600;9.890;2023-05-02T15:12:53;3.53;;;2.70;;
60030;SDS011;45901;47.600;9.890;2023-05-02T15:15:22;4.67;;;2.40;;
60030;SDS011;45901;47.600;9.890;2023-05-02T15:17:49;3.03;;;2.30;;
60030;SDS011;45901;47.600;9.890;2023-05-02T15:20:19;5.00;;;2.37;;
60030;SDS011;45901;47.600;9.890;2023-05-02T15:22:46;3.67;;;2.40;;
60030;SDS011;45901;47.600;9.890;2023-05-02T15:25:14;5.03;;;1.63;;
60030;SDS011;45901;47.600;9.890;2023-05-02T15:27:41;2.37;;;2.07;;
60030;SDS011;45901;47.600;9.890;2023-05-02T15:30:09;3.47;;;2.00;;
60030;SDS011;45901;47.600;9.890;2023-05-02T15:32:37;5.27;;;2.00;;